sensor_id;sensor_type;location;lat;lon;timestamp;pressure;altitude;pressure_sealevel;temperature;humidity
30744;BME280;17486;46.738;7.622;2023-04-20T00:01:52;94795.59;;;11.66;52.20
30744;BME280;17486;46.738;7.622;2023-04-20T00:04:18;94799.78;;;11.68;52.37
30744;BME280;17486;46.738;7.622;2023-04-20T00:06:43;94801.09;;;11.75;52.29
30744;BME280;17486;46.738;7.622;2023-04-20T00:09:11;94782.97;;;11.74;53.12
30744;BME280;17486;46.738;7.622;2023-04-20T00:11:37;94775.88;;;11.76;52.37
30744;BME280;17486;46.738;7.622;2023-04-20T00:14:02;94794.28;;;11.87;52.07
30744;BME280;17486;46.738;7.622;2023-04-20T00:16:28;94791.78;;;11.86;51.37
30744;BME280;17486;46.738;7.622;2023-04-20T00:18:54;94787.59;;;11.83;51.50
30744;BME280;17486;46.738;7.622;2023-04-20T00:21:20;94785.16;;;11.80;51.32
30744;BME280;17486;46.738;7.622;2023-04-20T00:23:48;94785.94;;;11.82;51.23
30744;BME280;17486;46.738;7.622;2023-04-20T00:26:14;94782.09;;;11.73;51.33
30744;BME280;17486;46.738;7.622;2023-04-20T00:28:41;94777.31;;;11.67;51.62
30744;BME280;17486;46.738;7.622;2023-04-20T00:31:06;94765.47;;;11.61;51.46
30744;BME280;17486;46.738;7.622;2023-04-20T00:33:31;94768.28;;;11.58;51.56
30744;BME280;17486;46.738;7.622;2023-04-20T00:35:57;94771.16;;;11.54;51.29
30744;BME280;17486;46.738;7.622;2023-04-20T00:38:22;94767.97;;;11.49;51.73
30744;BME280;17486;46.738;7.622;2023-04-20T00:40:47;94765.03;;;11.40;52.06
30744;BME280;17486;46.738;7.622;2023-04-20T00:43:17;94749.59;;;11.23;51.80
30744;BME280;17486;46.738;7.622;2023-04-20T00:45:44;94754.13;;;11.19;52.12
30744;BME280;17486;46.738;7.622;2023-04-20T00:48:09;94739.53;;;11.02;52.04
30744;BME280;17486;46.738;7.622;2023-04-20T00:50:36;94754.84;;;11.07;52.83
30744;BME280;17486;46.738;7.622;2023-04-20T00:53:02;94751.06;;;10.98;52.39
30744;BME280;17486;46.738;7.622;2023-04-20T00:55:29;94748.25;;;11.01;53.21
30744;BME280;17486;46.738;7.622;2023-04-20T00:57:55;94738.22;;;10.95;52.85
30744;BME280;17486;46.738;7.622;2023-04-20T01:00:21;94747.69;;;10.96;52.89
30744;BME280;17486;46.738;7.622;2023-04-20T01:02:47;94735.22;;;10.87;53.35
30744;BME280;17486;46.738;7.622;2023-04-20T01:05:12;94735.34;;;10.85;52.69
30744;BME280;17486;46.738;7.622;2023-04-20T01:07:38;94737.38;;;10.80;52.94
30744;BME280;17486;46.738;7.622;2023-04-20T01:10:05;94736.59;;;10.78;52.89
30744;BME280;17486;46.738;7.622;2023-04-20T01:12:31;94739.13;;;10.80;52.84
30744;BME280;17486;46.738;7.622;2023-04-20T01:14:56;94726.28;;;10.76;52.93
30744;BME280;17486;46.738;7.622;2023-04-20T01:17:21;94741.44;;;10.84;52.99
30744;BME280;17486;46.738;7.622;2023-04-20T01:19:48;94710.31;;;10.68;52.62
30744;BME280;17486;46.738;7.622;2023-04-20T01:22:19;94729.66;;;10.78;52.63
30744;BME280;17486;46.738;7.622;2023-04-20T01:24:46;94726.28;;;10.76;52.87
30744;BME280;17486;46.738;7.622;2023-04-20T01:27:12;94720.28;;;10.76;52.22
30744;BME280;17486;46.738;7.622;2023-04-20T01:29:39;94720.38;;;10.74;52.86
30744;BME280;17486;46.738;7.622;2023-04-20T01:32:04;94721.19;;;10.75;53.06
30744;BME280;17486;46.738;7.622;2023-04-20T01:34:30;94714.78;;;10.81;53.36
30744;BME280;17486;46.738;7.622;2023-04-20T01:36:55;94714.41;;;10.72;52.56
30744;BME280;17486;46.738;7.622;2023-04-20T01:39:21;94702.28;;;10.57;52.87
30744;BME280;17486;46.738;7.622;2023-04-20T01:41:46;94703.06;;;10.59;52.58
30744;BME280;17486;46.738;7.622;2023-04-20T01:44:12;94679.44;;;10.48;53.11
30744;BME280;17486;46.738;7.622;2023-04-20T01:46:38;94708.78;;;10.50;52.86
30744;BME280;17486;46.738;7.622;2023-04-20T01:49:04;94701.06;;;10.32;53.17
30744;BME280;17486;46.738;7.622;2023-04-20T01:51:30;94683.94;;;10.13;53.44
30744;BME280;17486;46.738;7.622;2023-04-20T01:53:58;94704.41;;;10.20;53.28
30744;BME280;17486;46.738;7.622;2023-04-20T01:56:24;94697.50;;;10.19;54.06
30744;BME280;17486;46.738;7.622;2023-04-20T01:58:49;94699.97;;;10.22;53.61
30744;BME280;17486;46.738;7.622;2023-04-20T02:01:15;94690.28;;;10.24;53.27
30744;BME280;17486;46.738;7.622;2023-04-20T02:03:40;94698.75;;;10.27;53.31
30744;BME280;17486;46.738;7.622;2023-04-20T02:06:05;94693.47;;;10.29;53.73
30744;BME280;17486;46.738;7.622;2023-04-20T02:08:32;94680.34;;;10.16;53.65
30744;BME280;17486;46.738;7.622;2023-04-20T02:10:58;94690.28;;;10.24;53.67
30744;BME280;17486;46.738;7.622;2023-04-20T02:13:23;94695.50;;;10.24;53.67
30744;BME280;17486;46.738;7.622;2023-04-20T02:15:49;94689.28;;;10.26;53.63
30744;BME280;17486;46.738;7.622;2023-04-20T02:18:15;94687.44;;;10.28;53.93
30744;BME280;17486;46.738;7.622;2023-04-20T02:20:41;94683.31;;;10.24;53.36
30744;BME280;17486;46.738;7.622;2023-04-20T02:23:07;94688.81;;;10.20;54.12
30744;BME280;17486;46.738;7.622;2023-04-20T02:25:32;94681.09;;;10.18;53.73
30744;BME280;17486;46.738;7.622;2023-04-20T02:27:58;94670.38;;;10.08;54.18
30744;BME280;17486;46.738;7.622;2023-04-20T02:30:23;94677.91;;;10.13;53.88
30744;BME280;17486;46.738;7.622;2023-04-20T02:32:48;94662.50;;;10.10;53.66
30744;BME280;17486;46.738;7.622;2023-04-20T02:35:14;94665.59;;;10.17;53.76
30744;BME280;17486;46.738;7.622;2023-04-20T02:37:39;94666.53;;;10.16;53.77
30744;BME280;17486;46.738;7.622;2023-04-20T02:40:06;94645.34;;;10.07;54.05
30744;BME280;17486;46.738;7.622;2023-04-20T02:42:31;94663.16;;;10.13;53.47
30744;BME280;17486;46.738;7.622;2023-04-20T02:44:57;94666.53;;;10.16;54.38
30744;BME280;17486;46.738;7.622;2023-04-20T02:47:22;94647.28;;;10.04;53.50
30744;BME280;17486;46.738;7.622;2023-04-20T02:49:48;94654.44;;;10.15;54.04
30744;BME280;17486;46.738;7.622;2023-04-20T02:52:13;94652.03;;;10.11;53.23
30744;BME280;17486;46.738;7.622;2023-04-20T02:54:39;94653.63;;;10.14;53.38
30744;BME280;17486;46.738;7.622;2023-04-20T02:57:05;94651.09;;;10.12;54.00
30744;BME280;17486;46.738;7.622;2023-04-20T02:59:30;94654.34;;;10.16;53.35
30744;BME280;17486;46.738;7.622;2023-04-20T03:01:55;94656.59;;;10.22;53.80
30744;BME280;17486;46.738;7.622;2023-04-20T03:04:21;94644.72;;;10.18;54.01
30744;BME280;17486;46.738;7.622;2023-04-20T03:06:48;94645.88;;;10.12;53.27
30744;BME280;17486;46.738;7.622;2023-04-20T03:09:14;94650.34;;;10.10;53.33
30744;BME280;17486;46.738;7.622;2023-04-20T03:11:40;94645.25;;;10.09;53.48
30744;BME280;17486;46.738;7.622;2023-04-20T03:14:05;94641.78;;;10.08;53.63
30744;BME280;17486;46.738;7.622;2023-04-20T03:16:31;94627.31;;;10.04;53.67
30744;BME280;17486;46.738;7.622;2023-04-20T03:18:56;94635.50;;;10.12;53.94
30744;BME280;17486;46.738;7.622;2023-04-20T03:21:22;94637.28;;;10.12;53.26
30744;BME280;17486;46.738;7.622;2023-04-20T03:23:47;94634.66;;;10.12;52.99
30744;BME280;17486;46.738;7.622;2023-04-20T03:26:13;94633.84;;;10.11;53.04
30744;BME280;17486;46.738;7.622;2023-04-20T03:28:40;94636.44;;;10.11;53.31
30744;BME280;17486;46.738;7.622;2023-04-20T03:31:06;94627.69;;;10.12;53.80
30744;BME280;17486;46.738;7.622;2023-04-20T03:33:31;94633.66;;;10.15;53.24
30744;BME280;17486;46.738;7.622;2023-04-20T03:35:57;94620.75;;;10.13;53.60
30744;BME280;17486;46.738;7.622;2023-04-20T03:38:22;94601.28;;;9.90;53.24
30744;BME280;17486;46.738;7.622;2023-04-20T03:40:47;94623.75;;;9.91;53.30
30744;BME280;17486;46.738;7.622;2023-04-20T03:43:13;94623.00;;;9.89;53.86
30744;BME280;17486;46.738;7.622;2023-04-20T03:45:38;94620.34;;;9.90;53.90
30744;BME280;17486;46.738;7.622;2023-04-20T03:48:04;94621.97;;;9.91;53.97
30744;BME280;17486;46.738;7.622;2023-04-20T03:50:29;94622.84;;;9.92;53.87
30744;BME280;17486;46.738;7.622;2023-04-20T03:52:54;94608.59;;;9.83;53.94
30744;BME280;17486;46.738;7.622;2023-04-20T03:55:20;94621.16;;;9.91;53.96
30744;BME280;17486;46.738;7.622;2023-04-20T03:57:45;94609.53;;;9.82;53.56
30744;BME280;17486;46.738;7.622;2023-04-20T04:00:11;94615.47;;;9.84;53.71
30744;BME280;17486;46.738;7.622;2023-04-20T04:02:37;94611.78;;;9.88;53.50
30744;BME280;17486;46.738;7.622;2023-04-20T04:05:02;94615.78;;;9.94;53.81
30744;BME280;17486;46.738;7.622;2023-04-20T04:07:27;94609.09;;;9.90;53.69
30744;BME280;17486;46.738;7.622;2023-04-20T04:09:53;94607.25;;;9.92;53.41
30744;BME280;17486;46.738;7.622;2023-04-20T04:12:18;94602.78;;;9.94;53.63
30744;BME280;17486;46.738;7.622;2023-04-20T04:14:44;94606.06;;;9.98;53.81
30744;BME280;17486;46.738;7.622;2023-04-20T04:17:09;94605.97;;;9.99;53.92
30744;BME280;17486;46.738;7.622;2023-04-20T04:19:34;94611.91;;;10.01;53.49
30744;BME280;17486;46.738;7.622;2023-04-20T04:22:00;94597.34;;;9.99;53.57
30744;BME280;17486;46.738;7.622;2023-04-20T04:24:25;94607.28;;;10.06;53.98
30744;BME280;17486;46.738;7.622;2023-04-20T04:26:51;94607.09;;;10.09;53.73
30744;BME280;17486;46.738;7.622;2023-04-20T04:29:20;94604.41;;;10.11;54.08
30744;BME280;17486;46.738;7.622;2023-04-20T04:31:46;94609.50;;;10.12;53.47
30744;BME280;17486;46.738;7.622;2023-04-20T04:34:11;94611.09;;;10.15;53.36
30744;BME280;17486;46.738;7.622;2023-04-20T04:36:37;94606.19;;;10.10;53.53
30744;BME280;17486;46.738;7.622;2023-04-20T04:39:03;94608.50;;;10.15;53.13
30744;BME280;17486;46.738;7.622;2023-04-20T04:41:28;94603.25;;;10.17;53.33
30744;BME280;17486;46.738;7.622;2023-04-20T04:43:54;94593.28;;;10.09;53.97
30744;BME280;17486;46.738;7.622;2023-04-20T04:46:20;94590.59;;;10.10;53.18
30744;BME280;17486;46.738;7.622;2023-04-20T04:48:45;94603.88;;;10.20;53.38
30744;BME280;17486;46.738;7.622;2023-04-20T04:51:10;94603.81;;;10.22;52.80
30744;BME280;17486;46.738;7.622;2023-04-20T04:53:36;94599.63;;;10.19;53.21
30744;BME280;17486;46.738;7.622;2023-04-20T04:56:02;94603.25;;;10.17;53.13
30744;BME280;17486;46.738;7.622;2023-04-20T04:58:28;94597.28;;;10.15;53.26
30744;BME280;17486;46.738;7.622;2023-04-20T05:00:53;94607.47;;;10.18;53.77
30744;BME280;17486;46.738;7.622;2023-04-20T05:03:18;94593.38;;;10.07;53.78
30744;BME280;17486;46.738;7.622;2023-04-20T05:05:44;94593.91;;;10.12;53.58
30744;BME280;17486;46.738;7.622;2023-04-20T05:08:09;94600.78;;;10.13;53.71
30744;BME280;17486;46.738;7.622;2023-04-20T05:10:35;94604.31;;;10.12;53.59
30744;BME280;17486;46.738;7.622;2023-04-20T05:13:00;94597.47;;;10.11;53.53
30744;BME280;17486;46.738;7.622;2023-04-20T05:15:26;94589.34;;;10.02;53.12
30744;BME280;17486;46.738;7.622;2023-04-20T05:17:51;94608.03;;;10.08;53.12
30744;BME280;17486;46.738;7.622;2023-04-20T05:20:17;94605.50;;;10.07;53.98
30744;BME280;17486;46.738;7.622;2023-04-20T05:22:43;94599.59;;;10.05;53.15
30744;BME280;17486;46.738;7.622;2023-04-20T05:25:08;94606.88;;;9.98;53.41
30744;BME280;17486;46.738;7.622;2023-04-20T05:27:34;94596.19;;;9.88;53.71
30744;BME280;17486;46.738;7.622;2023-04-20T05:29:59;94603.72;;;9.93;53.99
30744;BME280;17486;46.738;7.622;2023-04-20T05:32:25;94603.72;;;9.93;53.75
30744;BME280;17486;46.738;7.622;2023-04-20T05:34:50;94601.78;;;9.96;53.61
30744;BME280;17486;46.738;7.622;2023-04-20T05:37:16;94604.47;;;9.95;53.32
30744;BME280;17486;46.738;7.622;2023-04-20T05:39:41;94599.63;;;9.89;53.59
30744;BME280;17486;46.738;7.622;2023-04-20T05:42:07;94611.59;;;9.91;54.18
30744;BME280;17486;46.738;7.622;2023-04-20T05:44:32;94613.47;;;9.89;53.94
30744;BME280;17486;46.738;7.622;2023-04-20T05:47:00;94617.78;;;9.89;53.63
30744;BME280;17486;46.738;7.622;2023-04-20T05:49:26;94608.69;;;9.82;53.82
30744;BME280;17486;46.738;7.622;2023-04-20T05:51:51;94620.66;;;9.84;54.16
30744;BME280;17486;46.738;7.622;2023-04-20T05:54:16;94624.28;;;9.82;53.71
30744;BME280;17486;46.738;7.622;2023-04-20T05:56:42;94618.22;;;9.81;54.13
30744;BME280;17486;46.738;7.622;2023-04-20T05:59:07;94614.81;;;9.81;53.89
30744;BME280;17486;46.738;7.622;2023-04-20T06:01:33;94617.97;;;9.86;54.21
30744;BME280;17486;46.738;7.622;2023-04-20T06:03:58;94615.97;;;9.91;54.12
30744;BME280;17486;46.738;7.622;2023-04-20T06:06:24;94607.81;;;9.97;54.12
30744;BME280;17486;46.738;7.622;2023-04-20T06:08:50;94615.66;;;10.11;53.47
30744;BME280;17486;46.738;7.622;2023-04-20T06:11:16;94619.00;;;10.13;53.40
30744;BME280;17486;46.738;7.622;2023-04-20T06:13:42;94607.78;;;10.13;53.81
30744;BME280;17486;46.738;7.622;2023-04-20T06:16:07;94611.94;;;10.16;53.67
30744;BME280;17486;46.738;7.622;2023-04-20T06:18:35;94599.13;;;10.12;53.78
30744;BME280;17486;46.738;7.622;2023-04-20T06:21:01;94606.41;;;10.22;53.28
30744;BME280;17486;46.738;7.622;2023-04-20T06:23:27;94606.94;;;10.27;52.90
30744;BME280;17486;46.738;7.622;2023-04-20T06:25:53;94608.63;;;10.28;53.23
30744;BME280;17486;46.738;7.622;2023-04-20T06:28:18;94601.22;;;10.22;52.53
30744;BME280;17486;46.738;7.622;2023-04-20T06:30:43;94615.59;;;10.27;53.12
30744;BME280;17486;46.738;7.622;2023-04-20T06:33:09;94615.13;;;10.21;53.33
30744;BME280;17486;46.738;7.622;2023-04-20T06:35:38;94603.41;;;10.13;53.11
30744;BME280;17486;46.738;7.622;2023-04-20T06:38:04;94605.44;;;10.08;53.20
30744;BME280;17486;46.738;7.622;2023-04-20T06:40:29;94607.88;;;10.11;52.73
30744;BME280;17486;46.738;7.622;2023-04-20T06:42:54;94591.22;;;10.00;53.04
30744;BME280;17486;46.738;7.622;2023-04-20T06:45:20;94596.69;;;9.95;53.29
30744;BME280;17486;46.738;7.622;2023-04-20T06:47:46;94617.44;;;9.95;52.96
30744;BME280;17486;46.738;7.622;2023-04-20T06:50:11;94615.19;;;9.89;52.99
30744;BME280;17486;46.738;7.622;2023-04-20T06:52:38;94623.38;;;9.83;53.56
30744;BME280;17486;46.738;7.622;2023-04-20T06:55:03;94621.84;;;9.78;53.57
30744;BME280;17486;46.738;7.622;2023-04-20T06:57:29;94621.34;;;9.72;53.93
30744;BME280;17486;46.738;7.622;2023-04-20T06:59:54;94608.97;;;9.61;53.99
30744;BME280;17486;46.738;7.622;2023-04-20T07:02:20;94623.66;;;9.62;54.38
30744;BME280;17486;46.738;7.622;2023-04-20T07:04:45;94613.69;;;9.54;54.26
30744;BME280;17486;46.738;7.622;2023-04-20T07:07:11;94603.47;;;9.51;54.42
30744;BME280;17486;46.738;7.622;2023-04-20T07:09:36;94615.09;;;9.60;55.82
30744;BME280;17486;46.738;7.622;2023-04-20T07:12:01;94615.50;;;9.68;56.48
30744;BME280;17486;46.738;7.622;2023-04-20T07:14:27;94608.31;;;9.73;55.67
30744;BME280;17486;46.738;7.622;2023-04-20T07:16:53;94618.03;;;9.70;55.70
30744;BME280;17486;46.738;7.622;2023-04-20T07:19:19;94610.97;;;9.72;55.65
30744;BME280;17486;46.738;7.622;2023-04-20T07:21:45;94595.31;;;9.57;55.24
30744;BME280;17486;46.738;7.622;2023-04-20T07:24:10;94606.13;;;9.66;55.12
30744;BME280;17486;46.738;7.622;2023-04-20T07:26:36;94614.09;;;9.62;55.24
30744;BME280;17486;46.738;7.622;2023-04-20T07:29:01;94614.00;;;9.64;54.82
30744;BME280;17486;46.738;7.622;2023-04-20T07:31:26;94621.72;;;9.66;55.58
30744;BME280;17486;46.738;7.622;2023-04-20T07:33:52;94615.50;;;9.68;55.17
30744;BME280;17486;46.738;7.622;2023-04-20T07:36:17;94603.59;;;9.64;54.95
30744;BME280;17486;46.738;7.622;2023-04-20T07:38:44;94608.47;;;9.70;54.91
30744;BME280;17486;46.738;7.622;2023-04-20T07:41:09;94598.94;;;9.71;54.69
30744;BME280;17486;46.738;7.622;2023-04-20T07:43:35;94599.66;;;9.73;55.20
30744;BME280;17486;46.738;7.622;2023-04-20T07:46:01;94602.94;;;9.76;55.18
30744;BME280;17486;46.738;7.622;2023-04-20T07:48:26;94598.47;;;9.78;54.44
30744;BME280;17486;46.738;7.622;2023-04-20T07:50:52;94598.31;;;9.82;55.53
30744;BME280;17486;46.738;7.622;2023-04-20T07:53:17;94603.31;;;9.85;54.92
30744;BME280;17486;46.738;7.622;2023-04-20T07:55:43;94586.16;;;9.82;55.32
30744;BME280;17486;46.738;7.622;2023-04-20T07:58:08;94595.28;;;9.89;55.31
30744;BME280;17486;46.738;7.622;2023-04-20T08:00:34;94585.28;;;9.98;55.43
30744;BME280;17486;46.738;7.622;2023-04-20T08:02:59;94584.72;;;10.07;55.96
30744;BME280;17486;46.738;7.622;2023-04-20T08:05:24;94580.78;;;10.16;55.92
30744;BME280;17486;46.738;7.622;2023-04-20T08:07:50;94577.81;;;10.22;55.53
30744;BME280;17486;46.738;7.622;2023-04-20T08:10:15;94578.91;;;10.32;54.96
30744;BME280;17486;46.738;7.622;2023-04-20T08:12:40;94581.28;;;10.37;54.64
30744;BME280;17486;46.738;7.622;2023-04-20T08:15:06;94591.50;;;10.40;54.54
30744;BME280;17486;46.738;7.622;2023-04-20T08:17:33;94597.53;;;10.40;54.77
30744;BME280;17486;46.738;7.622;2023-04-20T08:19:58;94589.66;;;10.42;54.64
30744;BME280;17486;46.738;7.622;2023-04-20T08:22:23;94584.34;;;10.43;54.76
30744;BME280;17486;46.738;7.622;2023-04-20T08:24:54;94583.78;;;10.38;54.31
30744;BME280;17486;46.738;7.622;2023-04-20T08:27:19;94590.88;;;10.36;54.87
30744;BME280;17486;46.738;7.622;2023-04-20T08:29:45;94592.66;;;10.34;54.39
30744;BME280;17486;46.738;7.622;2023-04-20T08:32:10;94594.72;;;10.29;54.53
30744;BME280;17486;46.738;7.622;2023-04-20T08:34:37;94589.75;;;10.24;54.72
30744;BME280;17486;46.738;7.622;2023-04-20T08:37:03;94578.25;;;10.14;55.03
30744;BME280;17486;46.738;7.622;2023-04-20T08:39:28;94590.97;;;10.19;54.75
30744;BME280;17486;46.738;7.622;2023-04-20T08:41:54;94583.63;;;10.11;55.19
30744;BME280;17486;46.738;7.622;2023-04-20T08:44:22;94575.34;;;10.04;54.99
30744;BME280;17486;46.738;7.622;2023-04-20T08:46:48;94592.28;;;10.11;54.77
30744;BME280;17486;46.738;7.622;2023-04-20T08:49:14;94596.72;;;10.09;55.32
30744;BME280;17486;46.738;7.622;2023-04-20T08:51:42;94588.34;;;10.04;54.77
30744;BME280;17486;46.738;7.622;2023-04-20T08:54:09;94593.53;;;10.04;54.93
30744;BME280;17486;46.738;7.622;2023-04-20T08:56:41;94598.84;;;10.03;55.33
30744;BME280;17486;46.738;7.622;2023-04-20T08:59:07;94587.28;;;9.92;55.78
30744;BME280;17486;46.738;7.622;2023-04-20T09:01:36;94600.75;;;9.99;54.99
30744;BME280;17486;46.738;7.622;2023-04-20T09:04:14;94600.19;;;9.94;55.74
30744;BME280;17486;46.738;7.622;2023-04-20T09:06:48;94606.25;;;9.94;55.98
30744;BME280;17486;46.738;7.622;2023-04-20T09:09:17;94605.28;;;9.95;55.61
30744;BME280;17486;46.738;7.622;2023-04-20T09:11:43;94595.44;;;9.86;55.54
30744;BME280;17486;46.738;7.622;2023-04-20T09:14:10;94612.25;;;9.95;55.09
30744;BME280;17486;46.738;7.622;2023-04-20T09:16:49;94609.66;;;9.95;55.47
30744;BME280;17486;46.738;7.622;2023-04-20T09:19:23;94599.22;;;9.81;55.88
30744;BME280;17486;46.738;7.622;2023-04-20T09:21:50;94614.09;;;9.93;56.30
30744;BME280;17486;46.738;7.622;2023-04-20T09:24:18;94606.25;;;9.94;56.22
30744;BME280;17486;46.738;7.622;2023-04-20T09:26:44;94599.47;;;9.92;56.48
30744;BME280;17486;46.738;7.622;2023-04-20T09:29:20;94607.06;;;9.95;56.16
30744;BME280;17486;46.738;7.622;2023-04-20T09:31:47;94610.59;;;9.94;56.26
30744;BME280;17486;46.738;7.622;2023-04-20T09:34:13;94607.16;;;9.93;56.16
30744;BME280;17486;46.738;7.622;2023-04-20T09:36:44;94608.91;;;9.93;55.70
30744;BME280;17486;46.738;7.622;2023-04-20T09:39:18;94608.75;;;9.96;56.02
30744;BME280;17486;46.738;7.622;2023-04-20T09:41:44;94610.50;;;9.95;55.93
30744;BME280;17486;46.738;7.622;2023-04-20T09:44:11;94611.34;;;9.96;55.31
30744;BME280;17486;46.738;7.622;2023-04-20T09:46:38;94615.78;;;9.94;55.85
30744;BME280;17486;46.738;7.622;2023-04-20T09:49:06;94607.41;;;9.89;56.20
30744;BME280;17486;46.738;7.622;2023-04-20T09:51:33;94605.75;;;9.88;56.07
30744;BME280;17486;46.738;7.622;2023-04-20T09:54:01;94602.53;;;9.99;55.98
30744;BME280;17486;46.738;7.622;2023-04-20T09:56:28;94591.13;;;10.01;56.17
30744;BME280;17486;46.738;7.622;2023-04-20T09:58:54;94577.91;;;9.90;56.54
30744;BME280;17486;46.738;7.622;2023-04-20T10:01:21;94603.25;;;10.01;56.61
30744;BME280;17486;46.738;7.622;2023-04-20T10:03:47;94606.06;;;9.98;57.09
30744;BME280;17486;46.738;7.622;2023-04-20T10:06:33;94606.41;;;9.91;56.88
30744;BME280;17486;46.738;7.622;2023-04-20T10:09:07;94624.16;;;9.99;57.33
30744;BME280;17486;46.738;7.622;2023-04-20T10:11:38;94611.91;;;10.01;57.63
30744;BME280;17486;46.738;7.622;2023-04-20T10:14:21;94607.53;;;10.02;57.66
30744;BME280;17486;46.738;7.622;2023-04-20T10:17:07;94581.63;;;9.86;57.59
30744;BME280;17486;46.738;7.622;2023-04-20T10:19:36;94614.31;;;10.04;58.02
30744;BME280;17486;46.738;7.622;2023-04-20T10:22:02;94616.91;;;10.04;57.62
30744;BME280;17486;46.738;7.622;2023-04-20T10:24:29;94616.25;;;10.01;57.68
30744;BME280;17486;46.738;7.622;2023-04-20T10:26:54;94620.81;;;9.97;57.91
30744;BME280;17486;46.738;7.622;2023-04-20T10:29:27;94607.41;;;9.89;58.03
30744;BME280;17486;46.738;7.622;2023-04-20T10:31:53;94620.63;;;10.00;58.41
30744;BME280;17486;46.738;7.622;2023-04-20T10:34:33;94621.44;;;10.01;58.06
30744;BME280;17486;46.738;7.622;2023-04-20T10:37:08;94608.22;;;10.05;58.25
30744;BME280;17486;46.738;7.622;2023-04-20T10:39:35;94609.50;;;10.12;58.08
30744;BME280;17486;46.738;7.622;2023-04-20T10:42:02;94611.03;;;10.17;57.89
30744;BME280;17486;46.738;7.622;2023-04-20T10:44:28;94581.41;;;10.05;58.43
30744;BME280;17486;46.738;7.622;2023-04-20T10:46:55;94604.72;;;10.21;58.25
30744;BME280;17486;46.738;7.622;2023-04-20T10:49:28;94596.84;;;10.22;58.72
30744;BME280;17486;46.738;7.622;2023-04-20T10:51:54;94594.03;;;10.25;58.47
30744;BME280;17486;46.738;7.622;2023-04-20T10:54:20;94576.50;;;10.15;58.29
30744;BME280;17486;46.738;7.622;2023-04-20T10:56:50;94588.94;;;10.24;58.73
30744;BME280;17486;46.738;7.622;2023-04-20T10:59:23;94580.94;;;10.27;59.10
30744;BME280;17486;46.738;7.622;2023-04-20T11:01:50;94591.19;;;10.30;58.76
30744;BME280;17486;46.738;7.622;2023-04-20T11:04:16;94590.34;;;10.29;58.41
30744;BME280;17486;46.738;7.622;2023-04-20T11:06:45;94592.88;;;10.31;58.60
30744;BME280;17486;46.738;7.622;2023-04-20T11:09:16;94564.06;;;10.20;58.67
30744;BME280;17486;46.738;7.622;2023-04-20T11:11:45;94585.13;;;10.29;57.91
30744;BME280;17486;46.738;7.622;2023-04-20T11:14:11;94589.50;;;10.29;57.95
30744;BME280;17486;46.738;7.622;2023-04-20T11:16:37;94587.94;;;10.26;58.51
30744;BME280;17486;46.738;7.622;2023-04-20T11:19:03;94571.88;;;10.20;58.13
30744;BME280;17486;46.738;7.622;2023-04-20T11:21:39;94582.63;;;10.28;57.87
30744;BME280;17486;46.738;7.622;2023-04-20T11:24:37;94579.88;;;10.31;58.74
30744;BME280;17486;46.738;7.622;2023-04-20T11:27:05;94588.28;;;10.35;58.47
30744;BME280;17486;46.738;7.622;2023-04-20T11:29:37;94589.31;;;10.32;57.99
30744;BME280;17486;46.738;7.622;2023-04-20T11:32:09;94586.91;;;10.29;58.67
30744;BME280;17486;46.738;7.622;2023-04-20T11:34:37;94587.09;;;10.26;58.05
30744;BME280;17486;46.738;7.622;2023-04-20T11:37:08;94579.91;;;10.15;58.14
30744;BME280;17486;46.738;7.622;2023-04-20T11:39:35;94583.38;;;10.16;58.31
30744;BME280;17486;46.738;7.622;2023-04-20T11:42:02;94593.09;;;10.12;57.93
30744;BME280;17486;46.738;7.622;2023-04-20T11:44:27;94578.16;;;10.01;58.49
30744;BME280;17486;46.738;7.622;2023-04-20T11:46:53;94598.00;;;10.02;58.58
30744;BME280;17486;46.738;7.622;2023-04-20T11:49:24;94596.47;;;9.98;58.62
30744;BME280;17486;46.738;7.622;2023-04-20T11:51:50;94596.69;;;9.95;59.13
30744;BME280;17486;46.738;7.622;2023-04-20T11:54:15;94590.81;;;9.91;59.06
30744;BME280;17486;46.738;7.622;2023-04-20T11:56:43;94590.81;;;9.91;59.07
30744;BME280;17486;46.738;7.622;2023-04-20T11:59:10;94602.78;;;9.94;59.22
30744;BME280;17486;46.738;7.622;2023-04-20T12:01:36;94594.16;;;9.93;58.92
30744;BME280;17486;46.738;7.622;2023-04-20T12:04:04;94593.97;;;9.96;59.97
30744;BME280;17486;46.738;7.622;2023-04-20T12:06:30;94594.66;;;10.00;59.26
30744;BME280;17486;46.738;7.622;2023-04-20T12:08:56;94589.44;;;10.00;58.90
30744;BME280;17486;46.738;7.622;2023-04-20T12:11:21;94582.41;;;10.02;59.26
30744;BME280;17486;46.738;7.622;2023-04-20T12:13:47;94590.84;;;10.06;59.76
30744;BME280;17486;46.738;7.622;2023-04-20T12:16:12;94587.25;;;10.08;59.66
30744;BME280;17486;46.738;7.622;2023-04-20T12:18:38;94591.31;;;10.12;59.43
30744;BME280;17486;46.738;7.622;2023-04-20T12:21:03;94593.00;;;10.13;59.52
30744;BME280;17486;46.738;7.622;2023-04-20T12:23:29;94580.88;;;10.14;59.94
30744;BME280;17486;46.738;7.622;2023-04-20T12:25:55;94585.22;;;10.13;59.71
30744;BME280;17486;46.738;7.622;2023-04-20T12:28:20;94569.16;;;10.07;59.10
30744;BME280;17486;46.738;7.622;2023-04-20T12:30:46;94580.94;;;10.12;58.93
30744;BME280;17486;46.738;7.622;2023-04-20T12:33:11;94592.09;;;10.15;59.73
30744;BME280;17486;46.738;7.622;2023-04-20T12:35:36;94585.22;;;10.13;59.44
30744;BME280;17486;46.738;7.622;2023-04-20T12:38:02;94586.88;;;10.15;58.94
30744;BME280;17486;46.738;7.622;2023-04-20T12:40:27;94586.88;;;10.15;58.89
30744;BME280;17486;46.738;7.622;2023-04-20T12:42:53;94604.88;;;10.18;59.66
30744;BME280;17486;46.738;7.622;2023-04-20T12:45:18;94592.84;;;10.17;58.91
30744;BME280;17486;46.738;7.622;2023-04-20T12:47:44;94583.38;;;10.16;58.53
30744;BME280;17486;46.738;7.622;2023-04-20T12:50:09;94589.97;;;10.21;59.05
30744;BME280;17486;46.738;7.622;2023-04-20T12:52:35;94584.84;;;10.20;59.51
30744;BME280;17486;46.738;7.622;2023-04-20T12:55:00;94583.66;;;10.25;59.50
30744;BME280;17486;46.738;7.622;2023-04-20T12:57:26;94579.31;;;10.26;59.57
30744;BME280;17486;46.738;7.622;2023-04-20T12:59:51;94588.16;;;10.38;59.18